sensor_id;sensor_type;location;lat;lon;timestamp;P1;durP1;ratioP1;P2;durP2;ratioP2
41293;SDS011;27037;52.010;4.446;2023-11-21T00:00:15;24.67;;;9.43;;
41293;SDS011;27037;52.010;4.446;2023-11-21T00:02:41;28.23;;;9.50;;
41293;SDS011;27037;52.010;4.446;2023-11-21T00:05:08;21.52;;;9.10;;
41293;SDS011;27037;52.010;4.446;2023-11-21T00:07:38;20.55;;;8.90;;
41293;SDS011;27037;52.010;4.446;2023-11-21T00:10:04;21.38;;;8.98;;
41293;SDS011;27037;52.010;4.446;2023-11-21T00:12:30;19.50;;;8.40;;
41293;SDS011;27037;52.010;4.446;2023-11-21T00:14:56;16.63;;;8.63;;
41293;SDS011;27037;52.010;4.446;2023-11-21T00:17:22;19.27;;;9.05;;
41293;SDS011;27037;52.010;4.446;2023-11-21T00:19:48;21.33;;;9.20;;
41293;SDS011;27037;52.010;4.446;2023-11-21T00:22:13;18.00;;;8.10;;
41293;SDS011;27037;52.010;4.446;2023-11-21T00:24:40;21.73;;;8.98;;
41293;SDS011;27037;52.010;4.446;2023-11-21T00:27:06;17.17;;;8.43;;
41293;SDS011;27037;52.010;4.446;2023-11-21T00:29:32;16.55;;;8.23;;
41293;SDS011;27037;52.010;4.446;2023-11-21T00:31:57;19.80;;;8.65;;
41293;SDS011;27037;52.010;4.446;2023-11-21T00:34:23;22.67;;;9.02;;
41293;SDS011;27037;52.010;4.446;2023-11-21T00:36:49;17.60;;;7.88;;
41293;SDS011;27037;52.010;4.446;2023-11-21T00:39:14;21.95;;;9.13;;
41293;SDS011;27037;52.010;4.446;2023-11-21T00:41:40;15.95;;;8.23;;
41293;SDS011;27037;52.010;4.446;2023-11-21T00:44:07;20.77;;;8.73;;
41293;SDS011;27037;52.010;4.446;2023-11-21T00:46:32;20.83;;;9.38;;
41293;SDS011;27037;52.010;4.446;2023-11-21T00:48:58;21.42;;;8.88;;
41293;SDS011;27037;52.010;4.446;2023-11-21T00:51:24;17.63;;;8.52;;
41293;SDS011;27037;52.010;4.446;2023-11-21T00:53:49;18.23;;;7.75;;
41293;SDS011;27037;52.010;4.446;2023-11-21T00:56:15;23.15;;;7.93;;
41293;SDS011;27037;52.010;4.446;2023-11-21T00:58:41;20.95;;;8.25;;
41293;SDS011;27037;52.010;4.446;2023-11-21T01:01:11;25.90;;;8.68;;
41293;SDS011;27037;52.010;4.446;2023-11-21T01:03:37;20.10;;;8.73;;
41293;SDS011;27037;52.010;4.446;2023-11-21T01:06:03;24.30;;;8.73;;
41293;SDS011;27037;52.010;4.446;2023-11-21T01:08:32;23.42;;;8.75;;
41293;SDS011;27037;52.010;4.446;2023-11-21T01:10:57;30.70;;;9.02;;
41293;SDS011;27037;52.010;4.446;2023-11-21T01:13:23;21.60;;;8.80;;
41293;SDS011;27037;52.010;4.446;2023-11-21T01:15:52;25.00;;;8.93;;
41293;SDS011;27037;52.010;4.446;2023-11-21T01:18:18;31.35;;;9.07;;
41293;SDS011;27037;52.010;4.446;2023-11-21T01:20:43;20.00;;;7.75;;
41293;SDS011;27037;52.010;4.446;2023-11-21T01:23:11;24.35;;;8.93;;
41293;SDS011;27037;52.010;4.446;2023-11-21T01:25:38;24.75;;;9.25;;
41293;SDS011;27037;52.010;4.446;2023-11-21T01:28:03;21.77;;;9.27;;
41293;SDS011;27037;52.010;4.446;2023-11-21T01:30:29;23.70;;;8.65;;
41293;SDS011;27037;52.010;4.446;2023-11-21T01:32:54;27.15;;;8.27;;
41293;SDS011;27037;52.010;4.446;2023-11-21T01:35:20;20.58;;;8.85;;
41293;SDS011;27037;52.010;4.446;2023-11-21T01:37:45;26.33;;;9.18;;
41293;SDS011;27037;52.010;4.446;2023-11-21T01:40:13;20.98;;;8.27;;
41293;SDS011;27037;52.010;4.446;2023-11-21T01:42:39;21.73;;;8.73;;
41293;SDS011;27037;52.010;4.446;2023-11-21T01:45:05;24.15;;;9.00;;
41293;SDS011;27037;52.010;4.446;2023-11-21T01:47:34;23.60;;;8.55;;
41293;SDS011;27037;52.010;4.446;2023-11-21T01:50:01;21.95;;;8.60;;
41293;SDS011;27037;52.010;4.446;2023-11-21T01:52:29;24.13;;;8.57;;
41293;SDS011;27037;52.010;4.446;2023-11-21T01:54:55;27.50;;;8.68;;
41293;SDS011;27037;52.010;4.446;2023-11-21T01:57:22;23.80;;;8.63;;
41293;SDS011;27037;52.010;4.446;2023-11-21T01:59:48;24.05;;;8.57;;
41293;SDS011;27037;52.010;4.446;2023-11-21T02:02:15;20.58;;;8.65;;
41293;SDS011;27037;52.010;4.446;2023-11-21T02:04:41;21.88;;;8.75;;
41293;SDS011;27037;52.010;4.446;2023-11-21T02:07:07;21.85;;;8.73;;
41293;SDS011;27037;52.010;4.446;2023-11-21T02:09:33;24.27;;;8.77;;
41293;SDS011;27037;52.010;4.446;2023-11-21T02:11:59;30.27;;;9.32;;
41293;SDS011;27037;52.010;4.446;2023-11-21T02:14:25;30.63;;;8.90;;
41293;SDS011;27037;52.010;4.446;2023-11-21T02:16:53;22.77;;;9.07;;
41293;SDS011;27037;52.010;4.446;2023-11-21T02:19:19;30.73;;;9.65;;
41293;SDS011;27037;52.010;4.446;2023-11-21T02:21:53;26.00;;;9.02;;
41293;SDS011;27037;52.010;4.446;2023-11-21T02:24:20;23.95;;;9.70;;
41293;SDS011;27037;52.010;4.446;2023-11-21T02:26:46;26.88;;;9.05;;
41293;SDS011;27037;52.010;4.446;2023-11-21T02:29:12;24.40;;;8.70;;
41293;SDS011;27037;52.010;4.446;2023-11-21T02:31:38;22.33;;;8.75;;
41293;SDS011;27037;52.010;4.446;2023-11-21T02:34:16;22.63;;;8.07;;
41293;SDS011;27037;52.010;4.446;2023-11-21T02:36:45;20.02;;;8.95;;
41293;SDS011;27037;52.010;4.446;2023-11-21T02:39:10;23.65;;;7.70;;
41293;SDS011;27037;52.010;4.446;2023-11-21T02:41:39;17.35;;;7.88;;
41293;SDS011;27037;52.010;4.446;2023-11-21T02:44:05;18.90;;;8.00;;
41293;SDS011;27037;52.010;4.446;2023-11-21T02:46:32;17.40;;;7.97;;
41293;SDS011;27037;52.010;4.446;2023-11-21T02:48:59;21.00;;;8.95;;
41293;SDS011;27037;52.010;4.446;2023-11-21T02:51:25;18.20;;;7.88;;
41293;SDS011;27037;52.010;4.446;2023-11-21T02:53:51;20.17;;;7.53;;
41293;SDS011;27037;52.010;4.446;2023-11-21T02:56:16;21.42;;;8.45;;
41293;SDS011;27037;52.010;4.446;2023-11-21T02:58:42;18.38;;;8.23;;
41293;SDS011;27037;52.010;4.446;2023-11-21T03:01:09;19.58;;;7.82;;
41293;SDS011;27037;52.010;4.446;2023-11-21T03:03:35;20.92;;;8.43;;
41293;SDS011;27037;52.010;4.446;2023-11-21T03:06:04;18.00;;;8.13;;
41293;SDS011;27037;52.010;4.446;2023-11-21T03:08:29;19.67;;;7.72;;
41293;SDS011;27037;52.010;4.446;2023-11-21T03:10:55;22.08;;;8.30;;
41293;SDS011;27037;52.010;4.446;2023-11-21T03:13:21;21.85;;;8.23;;
41293;SDS011;27037;52.010;4.446;2023-11-21T03:15:46;19.05;;;8.15;;
41293;SDS011;27037;52.010;4.446;2023-11-21T03:18:12;22.48;;;8.85;;
41293;SDS011;27037;52.010;4.446;2023-11-21T03:20:38;16.55;;;7.68;;
41293;SDS011;27037;52.010;4.446;2023-11-21T03:23:03;18.25;;;8.02;;
41293;SDS011;27037;52.010;4.446;2023-11-21T03:25:30;18.27;;;7.80;;
41293;SDS011;27037;52.010;4.446;2023-11-21T03:27:56;17.00;;;8.20;;
41293;SDS011;27037;52.010;4.446;2023-11-21T03:30:21;16.60;;;8.70;;
41293;SDS011;27037;52.010;4.446;2023-11-21T03:32:47;19.55;;;8.40;;
41293;SDS011;27037;52.010;4.446;2023-11-21T03:35:12;20.75;;;8.43;;
41293;SDS011;27037;52.010;4.446;2023-11-21T03:37:38;21.02;;;8.32;;
41293;SDS011;27037;52.010;4.446;2023-11-21T03:40:06;17.75;;;8.05;;
41293;SDS011;27037;52.010;4.446;2023-11-21T03:42:34;23.30;;;8.93;;
41293;SDS011;27037;52.010;4.446;2023-11-21T03:44:59;18.05;;;8.77;;
41293;SDS011;27037;52.010;4.446;2023-11-21T03:47:26;16.60;;;8.30;;
41293;SDS011;27037;52.010;4.446;2023-11-21T03:49:52;16.83;;;8.32;;
41293;SDS011;27037;52.010;4.446;2023-11-21T03:52:18;20.25;;;8.38;;
41293;SDS011;27037;52.010;4.446;2023-11-21T03:54:43;21.52;;;8.50;;
41293;SDS011;27037;52.010;4.446;2023-11-21T03:57:09;19.30;;;8.35;;
41293;SDS011;27037;52.010;4.446;2023-11-21T03:59:35;20.58;;;8.13;;
41293;SDS011;27037;52.010;4.446;2023-11-21T04:02:01;17.80;;;8.05;;
41293;SDS011;27037;52.010;4.446;2023-11-21T04:04:26;21.60;;;8.48;;
41293;SDS011;27037;52.010;4.446;2023-11-21T04:06:52;23.02;;;8.68;;
41293;SDS011;27037;52.010;4.446;2023-11-21T04:09:17;21.25;;;9.27;;
41293;SDS011;27037;52.010;4.446;2023-11-21T04:11:43;18.90;;;8.63;;
41293;SDS011;27037;52.010;4.446;2023-11-21T04:14:10;19.05;;;9.20;;
41293;SDS011;27037;52.010;4.446;2023-11-21T04:16:36;17.92;;;8.82;;
41293;SDS011;27037;52.010;4.446;2023-11-21T04:19:01;18.33;;;8.35;;
41293;SDS011;27037;52.010;4.446;2023-11-21T04:21:27;18.35;;;8.85;;
41293;SDS011;27037;52.010;4.446;2023-11-21T04:23:52;17.88;;;8.63;;
41293;SDS011;27037;52.010;4.446;2023-11-21T04:26:18;20.77;;;8.77;;
41293;SDS011;27037;52.010;4.446;2023-11-21T04:28:44;18.13;;;8.77;;
41293;SDS011;27037;52.010;4.446;2023-11-21T04:31:09;18.05;;;8.55;;
41293;SDS011;27037;52.010;4.446;2023-11-21T04:33:35;17.05;;;8.40;;
41293;SDS011;27037;52.010;4.446;2023-11-21T04:36:01;16.85;;;8.13;;
41293;SDS011;27037;52.010;4.446;2023-11-21T04:38:27;14.55;;;7.68;;
41293;SDS011;27037;52.010;4.446;2023-11-21T04:40:52;16.38;;;7.85;;
41293;SDS011;27037;52.010;4.446;2023-11-21T04:43:18;13.70;;;7.68;;
41293;SDS011;27037;52.010;4.446;2023-11-21T04:45:43;15.55;;;7.43;;
41293;SDS011;27037;52.010;4.446;2023-11-21T04:48:09;15.43;;;8.00;;
41293;SDS011;27037;52.010;4.446;2023-11-21T04:50:35;14.95;;;8.25;;
41293;SDS011;27037;52.010;4.446;2023-11-21T04:53:00;17.45;;;8.00;;
41293;SDS011;27037;52.010;4.446;2023-11-21T04:55:26;19.98;;;8.85;;
41293;SDS011;27037;52.010;4.446;2023-11-21T04:57:53;21.80;;;9.07;;
41293;SDS011;27037;52.010;4.446;2023-11-21T05:00:19;16.10;;;8.70;;
41293;SDS011;27037;52.010;4.446;2023-11-21T05:02:46;17.23;;;8.13;;
41293;SDS011;27037;52.010;4.446;2023-11-21T05:05:12;16.95;;;7.50;;
41293;SDS011;27037;52.010;4.446;2023-11-21T05:07:38;18.00;;;8.23;;
41293;SDS011;27037;52.010;4.446;2023-11-21T05:10:05;13.57;;;7.47;;
41293;SDS011;27037;52.010;4.446;2023-11-21T05:12:36;16.70;;;7.88;;
41293;SDS011;27037;52.010;4.446;2023-11-21T05:15:06;15.27;;;7.47;;
41293;SDS011;27037;52.010;4.446;2023-11-21T05:17:34;13.57;;;7.38;;
41293;SDS011;27037;52.010;4.446;2023-11-21T05:20:00;15.23;;;7.28;;
41293;SDS011;27037;52.010;4.446;2023-11-21T05:22:29;16.30;;;8.18;;
41293;SDS011;27037;52.010;4.446;2023-11-21T05:24:55;14.95;;;7.43;;
41293;SDS011;27037;52.010;4.446;2023-11-21T05:27:20;12.93;;;7.20;;
41293;SDS011;27037;52.010;4.446;2023-11-21T05:29:46;15.48;;;7.47;;
41293;SDS011;27037;52.010;4.446;2023-11-21T05:32:11;13.65;;;7.53;;
41293;SDS011;27037;52.010;4.446;2023-11-21T05:34:37;14.10;;;7.13;;
41293;SDS011;27037;52.010;4.446;2023-11-21T05:37:03;15.70;;;7.70;;
41293;SDS011;27037;52.010;4.446;2023-11-21T05:39:30;12.38;;;6.82;;
41293;SDS011;27037;52.010;4.446;2023-11-21T05:41:55;15.45;;;7.50;;
41293;SDS011;27037;52.010;4.446;2023-11-21T05:44:22;12.95;;;7.43;;
41293;SDS011;27037;52.010;4.446;2023-11-21T05:46:48;15.23;;;7.25;;
41293;SDS011;27037;52.010;4.446;2023-11-21T05:49:15;13.23;;;6.85;;
41293;SDS011;27037;52.010;4.446;2023-11-21T05:51:41;12.05;;;6.20;;
41293;SDS011;27037;52.010;4.446;2023-11-21T05:54:07;12.15;;;6.63;;
41293;SDS011;27037;52.010;4.446;2023-11-21T05:56:33;8.23;;;5.10;;
41293;SDS011;27037;52.010;4.446;2023-11-21T05:58:58;10.73;;;5.53;;
41293;SDS011;27037;52.010;4.446;2023-11-21T06:01:24;9.30;;;5.55;;
41293;SDS011;27037;52.010;4.446;2023-11-21T06:03:53;11.80;;;5.28;;
41293;SDS011;27037;52.010;4.446;2023-11-21T06:06:20;8.40;;;5.60;;
41293;SDS011;27037;52.010;4.446;2023-11-21T06:08:47;10.93;;;5.65;;
41293;SDS011;27037;52.010;4.446;2023-11-21T06:11:15;11.32;;;5.50;;
41293;SDS011;27037;52.010;4.446;2023-11-21T06:13:41;10.27;;;4.95;;
41293;SDS011;27037;52.010;4.446;2023-11-21T06:16:07;10.20;;;5.60;;
41293;SDS011;27037;52.010;4.446;2023-11-21T06:18:33;9.85;;;5.13;;
41293;SDS011;27037;52.010;4.446;2023-11-21T06:21:00;12.05;;;5.57;;
41293;SDS011;27037;52.010;4.446;2023-11-21T06:23:25;10.25;;;5.63;;
41293;SDS011;27037;52.010;4.446;2023-11-21T06:25:51;11.88;;;5.90;;
41293;SDS011;27037;52.010;4.446;2023-11-21T06:28:17;9.18;;;4.97;;
41293;SDS011;27037;52.010;4.446;2023-11-21T06:30:43;8.77;;;5.18;;
41293;SDS011;27037;52.010;4.446;2023-11-21T06:33:10;8.80;;;5.28;;
41293;SDS011;27037;52.010;4.446;2023-11-21T06:35:36;12.50;;;5.78;;
41293;SDS011;27037;52.010;4.446;2023-11-21T06:38:01;7.82;;;4.93;;
41293;SDS011;27037;52.010;4.446;2023-11-21T06:40:28;9.73;;;5.45;;
41293;SDS011;27037;52.010;4.446;2023-11-21T06:42:53;8.15;;;4.65;;
41293;SDS011;27037;52.010;4.446;2023-11-21T06:45:19;8.95;;;5.25;;
41293;SDS011;27037;52.010;4.446;2023-11-21T06:47:45;8.48;;;4.63;;
41293;SDS011;27037;52.010;4.446;2023-11-21T06:50:10;8.52;;;4.65;;
41293;SDS011;27037;52.010;4.446;2023-11-21T06:52:36;7.00;;;4.25;;
41293;SDS011;27037;52.010;4.446;2023-11-21T06:55:02;8.73;;;4.68;;
41293;SDS011;27037;52.010;4.446;2023-11-21T06:57:28;10.23;;;4.82;;
41293;SDS011;27037;52.010;4.446;2023-11-21T06:59:54;9.82;;;4.68;;
41293;SDS011;27037;52.010;4.446;2023-11-21T07:02:22;8.77;;;4.15;;
41293;SDS011;27037;52.010;4.446;2023-11-21T07:04:47;8.40;;;4.10;;
41293;SDS011;27037;52.010;4.446;2023-11-21T07:07:13;12.90;;;4.32;;
41293;SDS011;27037;52.010;4.446;2023-11-21T07:09:39;12.38;;;4.07;;
41293;SDS011;27037;52.010;4.446;2023-11-21T07:12:04;11.25;;;3.95;;
41293;SDS011;27037;52.010;4.446;2023-11-21T07:14:32;15.27;;;4.75;;
41293;SDS011;27037;52.010;4.446;2023-11-21T07:16:58;14.68;;;4.65;;
41293;SDS011;27037;52.010;4.446;2023-11-21T07:19:24;12.40;;;4.95;;
41293;SDS011;27037;52.010;4.446;2023-11-21T07:21:50;14.55;;;4.97;;
41293;SDS011;27037;52.010;4.446;2023-11-21T07:24:16;15.57;;;4.80;;
41293;SDS011;27037;52.010;4.446;2023-11-21T07:26:41;11.45;;;4.80;;
41293;SDS011;27037;52.010;4.446;2023-11-21T07:29:07;14.27;;;5.50;;
41293;SDS011;27037;52.010;4.446;2023-11-21T07:31:33;16.02;;;4.90;;
41293;SDS011;27037;52.010;4.446;2023-11-21T07:34:03;21.13;;;5.47;;
41293;SDS011;27037;52.010;4.446;2023-11-21T07:36:28;16.85;;;5.40;;
41293;SDS011;27037;52.010;4.446;2023-11-21T07:38:54;19.05;;;5.18;;
41293;SDS011;27037;52.010;4.446;2023-11-21T07:41:19;22.08;;;5.90;;
41293;SDS011;27037;52.010;4.446;2023-11-21T07:43:46;26.35;;;6.18;;
41293;SDS011;27037;52.010;4.446;2023-11-21T07:46:11;15.93;;;5.88;;
41293;SDS011;27037;52.010;4.446;2023-11-21T07:48:38;17.40;;;6.35;;
41293;SDS011;27037;52.010;4.446;2023-11-21T07:51:04;23.58;;;5.65;;
41293;SDS011;27037;52.010;4.446;2023-11-21T07:53:31;12.80;;;5.70;;
41293;SDS011;27037;52.010;4.446;2023-11-21T07:55:58;19.58;;;5.45;;
41293;SDS011;27037;52.010;4.446;2023-11-21T07:58:28;18.73;;;5.22;;
41293;SDS011;27037;52.010;4.446;2023-11-21T08:00:53;18.80;;;5.90;;
41293;SDS011;27037;52.010;4.446;2023-11-21T08:03:19;14.13;;;5.53;;
41293;SDS011;27037;52.010;4.446;2023-11-21T08:05:45;16.77;;;5.60;;
41293;SDS011;27037;52.010;4.446;2023-11-21T08:08:10;26.27;;;6.40;;
41293;SDS011;27037;52.010;4.446;2023-11-21T08:10:36;16.17;;;5.90;;
41293;SDS011;27037;52.010;4.446;2023-11-21T08:13:02;23.55;;;6.22;;
41293;SDS011;27037;52.010;4.446;2023-11-21T08:15:28;18.52;;;5.88;;
41293;SDS011;27037;52.010;4.446;2023-11-21T08:17:56;16.50;;;6.05;;
41293;SDS011;27037;52.010;4.446;2023-11-21T08:20:23;18.25;;;6.28;;
41293;SDS011;27037;52.010;4.446;2023-11-21T08:22:50;18.92;;;5.78;;
41293;SDS011;27037;52.010;4.446;2023-11-21T08:25:16;26.35;;;6.55;;
41293;SDS011;27037;52.010;4.446;2023-11-21T08:27:44;22.02;;;6.47;;
41293;SDS011;27037;52.010;4.446;2023-11-21T08:30:10;22.63;;;6.70;;
41293;SDS011;27037;52.010;4.446;2023-11-21T08:32:38;18.17;;;6.63;;
41293;SDS011;27037;52.010;4.446;2023-11-21T08:35:04;25.15;;;6.88;;
41293;SDS011;27037;52.010;4.446;2023-11-21T08:37:30;23.60;;;7.47;;
41293;SDS011;27037;52.010;4.446;2023-11-21T08:39:58;23.92;;;7.45;;
41293;SDS011;27037;52.010;4.446;2023-11-21T08:42:27;20.83;;;7.10;;
41293;SDS011;27037;52.010;4.446;2023-11-21T08:44:54;25.92;;;6.60;;
41293;SDS011;27037;52.010;4.446;2023-11-21T08:47:23;20.75;;;6.25;;
41293;SDS011;27037;52.010;4.446;2023-11-21T08:49:51;20.33;;;6.68;;
41293;SDS011;27037;52.010;4.446;2023-11-21T08:52:20;18.13;;;5.97;;
41293;SDS011;27037;52.010;4.446;2023-11-21T08:54:47;15.18;;;6.15;;
41293;SDS011;27037;52.010;4.446;2023-11-21T08:57:13;15.02;;;5.80;;
41293;SDS011;27037;52.010;4.446;2023-11-21T08:59:39;15.15;;;5.70;;
41293;SDS011;27037;52.010;4.446;2023-11-21T09:02:04;17.48;;;5.63;;
41293;SDS011;27037;52.010;4.446;2023-11-21T09:04:30;13.93;;;5.22;;
41293;SDS011;27037;52.010;4.446;2023-11-21T09:06:56;9.82;;;4.93;;
41293;SDS011;27037;52.010;4.446;2023-11-21T09:09:24;12.93;;;5.45;;
41293;SDS011;27037;52.010;4.446;2023-11-21T09:11:50;15.13;;;5.78;;
41293;SDS011;27037;52.010;4.446;2023-11-21T09:14:16;15.77;;;5.53;;
41293;SDS011;27037;52.010;4.446;2023-11-21T09:16:44;14.38;;;5.72;;
41293;SDS011;27037;52.010;4.446;2023-11-21T09:19:09;9.32;;;5.00;;
41293;SDS011;27037;52.010;4.446;2023-11-21T09:21:35;9.60;;;5.63;;
41293;SDS011;27037;52.010;4.446;2023-11-21T09:24:00;12.07;;;5.68;;
41293;SDS011;27037;52.010;4.446;2023-11-21T09:26:26;11.63;;;5.45;;
41293;SDS011;27037;52.010;4.446;2023-11-21T09:28:52;8.70;;;5.40;;
41293;SDS011;27037;52.010;4.446;2023-11-21T09:31:18;10.13;;;5.55;;
41293;SDS011;27037;52.010;4.446;2023-11-21T09:33:47;13.07;;;6.53;;
41293;SDS011;27037;52.010;4.446;2023-11-21T09:36:13;10.65;;;6.20;;
41293;SDS011;27037;52.010;4.446;2023-11-21T09:38:42;11.98;;;6.70;;
41293;SDS011;27037;52.010;4.446;2023-11-21T09:41:11;12.68;;;6.60;;
41293;SDS011;27037;52.010;4.446;2023-11-21T09:43:46;11.82;;;6.53;;
41293;SDS011;27037;52.010;4.446;2023-11-21T09:46:18;14.43;;;7.25;;
41293;SDS011;27037;52.010;4.446;2023-11-21T09:48:48;16.15;;;8.10;;
41293;SDS011;27037;52.010;4.446;2023-11-21T09:51:17;14.43;;;7.75;;
41293;SDS011;27037;52.010;4.446;2023-11-21T09:53:45;14.70;;;7.32;;
41293;SDS011;27037;52.010;4.446;2023-11-21T09:56:14;15.52;;;7.78;;
41293;SDS011;27037;52.010;4.446;2023-11-21T09:58:44;14.85;;;7.38;;
41293;SDS011;27037;52.010;4.446;2023-11-21T10:01:10;18.20;;;7.72;;
41293;SDS011;27037;52.010;4.446;2023-11-21T10:03:39;15.15;;;8.63;;
41293;SDS011;27037;52.010;4.446;2023-11-21T10:06:05;17.00;;;8.75;;
41293;SDS011;27037;52.010;4.446;2023-11-21T10:08:31;14.20;;;8.75;;
41293;SDS011;27037;52.010;4.446;2023-11-21T10:10:58;19.67;;;9.95;;
41293;SDS011;27037;52.010;4.446;2023-11-21T10:13:24;18.95;;;8.63;;
41293;SDS011;27037;52.010;4.446;2023-11-21T10:15:55;17.60;;;8.50;;
41293;SDS011;27037;52.010;4.446;2023-11-21T10:18:23;14.95;;;8.55;;
41293;SDS011;27037;52.010;4.446;2023-11-21T10:20:50;16.80;;;8.60;;
41293;SDS011;27037;52.010;4.446;2023-11-21T10:23:19;16.55;;;9.38;;
41293;SDS011;27037;52.010;4.446;2023-11-21T10:25:47;19.70;;;9.80;;
41293;SDS011;27037;52.010;4.446;2023-11-21T10:28:15;14.75;;;8.73;;
41293;SDS011;27037;52.010;4.446;2023-11-21T10:30:41;15.35;;;9.02;;
41293;SDS011;27037;52.010;4.446;2023-11-21T10:33:07;14.25;;;8.55;;
41293;SDS011;27037;52.010;4.446;2023-11-21T10:35:45;14.90;;;8.07;;
41293;SDS011;27037;52.010;4.446;2023-11-21T10:38:16;14.20;;;7.85;;
41293;SDS011;27037;52.010;4.446;2023-11-21T10:40:43;13.93;;;7.95;;
41293;SDS011;27037;52.010;4.446;2023-11-21T10:43:09;13.43;;;8.10;;
41293;SDS011;27037;52.010;4.446;2023-11-21T10:45:37;12.07;;;8.20;;
41293;SDS011;27037;52.010;4.446;2023-11-21T10:48:06;12.68;;;8.20;;
41293;SDS011;27037;52.010;4.446;2023-11-21T10:50:35;13.50;;;7.72;;
41293;SDS011;27037;52.010;4.446;2023-11-21T10:53:02;10.85;;;7.32;;
41293;SDS011;27037;52.010;4.446;2023-11-21T10:55:29;13.50;;;8.48;;
41293;SDS011;27037;52.010;4.446;2023-11-21T10:57:57;11.98;;;7.97;;
41293;SDS011;27037;52.010;4.446;2023-11-21T11:00:24;13.18;;;8.43;;
41293;SDS011;27037;52.010;4.446;2023-11-21T11:02:52;13.75;;;8.32;;
41293;SDS011;27037;52.010;4.446;2023-11-21T11:05:20;12.73;;;7.70;;
41293;SDS011;27037;52.010;4.446;2023-11-21T11:07:49;14.15;;;7.80;;
41293;SDS011;27037;52.010;4.446;2023-11-21T11:10:20;11.80;;;7.43;;
41293;SDS011;27037;52.010;4.446;2023-11-21T11:12:48;13.55;;;7.40;;
41293;SDS011;27037;52.010;4.446;2023-11-21T11:15:15;14.70;;;7.75;;
41293;SDS011;27037;52.010;4.446;2023-11-21T11:17:41;12.63;;;7.28;;
41293;SDS011;27037;52.010;4.446;2023-11-21T11:20:09;14.73;;;7.68;;
41293;SDS011;27037;52.010;4.446;2023-11-21T11:22:44;11.65;;;6.97;;
41293;SDS011;27037;52.010;4.446;2023-11-21T11:28:07;16.88;;;8.30;;
41293;SDS011;27037;52.010;4.446;2023-11-21T11:38:33;19.30;;;10.93;;
41293;SDS011;27037;52.010;4.446;2023-11-21T11:41:04;21.05;;;12.15;;
41293;SDS011;27037;52.010;4.446;2023-11-21T11:43:32;21.52;;;13.05;;
41293;SDS011;27037;52.010;4.446;2023-11-21T11:46:02;19.15;;;11.73;;
41293;SDS011;27037;52.010;4.446;2023-11-21T11:48:28;16.88;;;10.73;;
41293;SDS011;27037;52.010;4.446;2023-11-21T11:51:00;18.15;;;10.77;;
41293;SDS011;27037;52.010;4.446;2023-11-21T11:53:36;17.25;;;10.45;;
41293;SDS011;27037;52.010;4.446;2023-11-21T11:56:24;16.83;;;10.37;;
41293;SDS011;27037;52.010;4.446;2023-11-21T11:58:52;16.20;;;9.43;;
41293;SDS011;27037;52.010;4.446;2023-11-21T12:01:22;14.88;;;9.75;;
41293;SDS011;27037;52.010;4.446;2023-11-21T12:06:42;16.95;;;10.43;;
41293;SDS011;27037;52.010;4.446;2023-11-21T12:09:18;17.10;;;10.65;;
41293;SDS011;27037;52.010;4.446;2023-11-21T12:11:46;15.23;;;10.13;;
41293;SDS011;27037;52.010;4.446;2023-11-21T12:14:16;15.90;;;9.73;;
41293;SDS011;27037;52.010;4.446;2023-11-21T12:16:42;14.13;;;9.20;;
41293;SDS011;27037;52.010;4.446;2023-11-21T12:19:08;13.68;;;9.52;;
41293;SDS011;27037;52.010;4.446;2023-11-21T12:21:38;14.52;;;9.35;;
41293;SDS011;27037;52.010;4.446;2023-11-21T12:24:06;14.15;;;9.00;;
41293;SDS011;27037;52.010;4.446;2023-11-21T12:26:34;14.60;;;9.23;;
41293;SDS011;27037;52.010;4.446;2023-11-21T12:29:01;14.18;;;9.88;;
41293;SDS011;27037;52.010;4.446;2023-11-21T12:31:29;15.77;;;9.60;;
41293;SDS011;27037;52.010;4.446;2023-11-21T12:33:55;14.00;;;9.15;;
41293;SDS011;27037;52.010;4.446;2023-11-21T12:36:22;14.63;;;9.50;;
41293;SDS011;27037;52.010;4.446;2023-11-21T12:38:49;15.02;;;9.00;;
41293;SDS011;27037;52.010;4.446;2023-11-21T12:41:15;13.77;;;9.32;;
41293;SDS011;27037;52.010;4.446;2023-11-21T12:43:42;14.68;;;9.07;;
41293;SDS011;27037;52.010;4.446;2023-11-21T12:46:09;15.15;;;9.43;;
41293;SDS011;27037;52.010;4.446;2023-11-21T12:48:39;13.77;;;8.93;;
41293;SDS011;27037;52.010;4.446;2023-11-21T12:51:09;14.38;;;8.60;;
41293;SDS011;27037;52.010;4.446;2023-11-21T12:53:36;14.85;;;8.77;;
41293;SDS011;27037;52.010;4.446;2023-11-21T12:56:06;14.40;;;9.75;;
41293;SDS011;27037;52.010;4.446;2023-11-21T12:58:34;12.35;;;8.52;;
41293;SDS011;27037;52.010;4.446;2023-11-21T13:01:01;12.55;;;8.60;;
41293;SDS011;27037;52.010;4.446;2023-11-21T13:03:30;14.18;;;8.20;;
41293;SDS011;27037;52.010;4.446;2023-11-21T13:05:55;14.10;;;8.55;;
41293;SDS011;27037;52.010;4.446;2023-11-21T13:08:24;10.60;;;8.07;;
41293;SDS011;27037;52.010;4.446;2023-11-21T13:10:52;10.07;;;7.50;;
41293;SDS011;27037;52.010;4.446;2023-11-21T13:13:21;12.32;;;8.20;;
41293;SDS011;27037;52.010;4.446;2023-11-21T13:15:52;11.00;;;8.15;;
41293;SDS011;27037;52.010;4.446;2023-11-21T13:18:26;11.45;;;7.68;;
41293;SDS011;27037;52.010;4.446;2023-11-21T13:20:52;11.40;;;8.18;;
41293;SDS011;27037;52.010;4.446;2023-11-21T13:23:20;13.80;;;8.20;;
41293;SDS011;27037;52.010;4.446;2023-11-21T13:25:45;10.70;;;6.93;;
41293;SDS011;27037;52.010;4.446;2023-11-21T13:28:12;11.27;;;6.97;;
41293;SDS011;27037;52.010;4.446;2023-11-21T13:30:40;10.55;;;7.00;;
41293;SDS011;27037;52.010;4.446;2023-11-21T13:33:07;10.93;;;7.45;;
41293;SDS011;27037;52.010;4.446;2023-11-21T13:35:35;10.52;;;7.50;;
41293;SDS011;27037;52.010;4.446;2023-11-21T13:38:11;12.70;;;8.32;;
41293;SDS011;27037;52.010;4.446;2023-11-21T13:40:38;12.15;;;7.78;;
41293;SDS011;27037;52.010;4.446;2023-11-21T13:43:09;12.77;;;8.48;;
41293;SDS011;27037;52.010;4.446;2023-11-21T13:45:42;14.40;;;8.70;;
41293;SDS011;27037;52.010;4.446;2023-11-21T13:48:09;14.10;;;8.85;;
41293;SDS011;27037;52.010;4.446;2023-11-21T13:50:38;14.38;;;8.95;;
41293;SDS011;27037;52.010;4.446;2023-11-21T13:53:09;15.70;;;9.30;;
41293;SDS011;27037;52.010;4.446;2023-11-21T13:55:47;16.67;;;8.82;;
41293;SDS011;27037;52.010;4.446;2023-11-21T13:58:25;15.13;;;8.88;;
41293;SDS011;27037;52.010;4.446;2023-11-21T14:01:09;16.38;;;9.98;;
41293;SDS011;27037;52.010;4.446;2023-11-21T14:03:53;15.48;;;9.75;;
41293;SDS011;27037;52.010;4.446;2023-11-21T14:06:27;17.00;;;10.25;;
41293;SDS011;27037;52.010;4.446;2023-11-21T14:08:59;14.40;;;9.82;;
41293;SDS011;27037;52.010;4.446;2023-11-21T14:11:31;14.38;;;9.60;;
41293;SDS011;27037;52.010;4.446;2023-11-21T14:13:57;13.52;;;9.25;;
41293;SDS011;27037;52.010;4.446;2023-11-21T14:16:24;13.23;;;8.90;;
41293;SDS011;27037;52.010;4.446;2023-11-21T14:18:50;15.25;;;9.02;;
41293;SDS011;27037;52.010;4.446;2023-11-21T14:21:26;15.50;;;9.35;;
41293;SDS011;27037;52.010;4.446;2023-11-21T14:23:52;13.02;;;8.60;;
41293;SDS011;27037;52.010;4.446;2023-11-21T14:26:20;11.82;;;8.00;;
41293;SDS011;27037;52.010;4.446;2023-11-21T14:28:45;12.30;;;8.02;;
41293;SDS011;27037;52.010;4.446;2023-11-21T14:31:13;17.65;;;9.70;;
41293;SDS011;27037;52.010;4.446;2023-11-21T14:33:42;15.40;;;9.82;;
41293;SDS011;27037;52.010;4.446;2023-11-21T14:36:09;19.00;;;11.60;;
41293;SDS011;27037;52.010;4.446;2023-11-21T14:38:35;19.48;;;12.65;;
41293;SDS011;27037;52.010;4.446;2023-11-21T14:41:02;20.95;;;12.52;;
41293;SDS011;27037;52.010;4.446;2023-11-21T14:43:29;21.65;;;13.68;;
41293;SDS011;27037;52.010;4.446;2023-11-21T14:45:59;20.67;;;12.82;;
41293;SDS011;27037;52.010;4.446;2023-11-21T14:48:24;20.80;;;12.50;;